Airport View

Enter AWOS ICAO identifier for current METAR.

ex. KFNL

PAJC 212257Z AUTO 34007KT 10SM OVC044 14/06 A2978 RMK AO2 SLP085 T01390061

21 Sep 2019 23:56

Frequency: 135.75

Phone: 907-749-2402

Other Area AWOS: PAPH - PAPN - PASD - PAOU

TAF PASD 211739Z 2118/2218 VRB05KT P6SM FEW030 FEW040 FM212000 23010KT P6SM SCT040 FM220600 17005KT P6SM BKN040 OVC080 FM221000 15008KT P6SM -RA BKN025 OVC040 AMD LTD TO CLD VIS AND WIND